createdAt,value
2023-07-04T00:01:26.358Z,7.72
2023-07-04T00:04:31.198Z,7.28
2023-07-04T00:07:33.950Z,7.55
2023-07-04T00:10:38.957Z,7.65
2023-07-04T00:13:42.343Z,7.90
2023-07-04T00:16:46.051Z,7.72
2023-07-04T00:19:49.328Z,7.45
2023-07-04T00:22:52.106Z,7.47
2023-07-04T00:25:56.298Z,7.35
2023-07-04T00:28:59.247Z,7.73
2023-07-04T00:32:02.960Z,7.38
2023-07-04T00:35:07.354Z,7.57
2023-07-04T00:38:10.906Z,8.05
2023-07-04T00:41:22.260Z,7.88
2023-07-04T00:44:31.840Z,7.97
2023-07-04T00:47:44.663Z,8.07
2023-07-04T00:50:51.266Z,8.15
2023-07-04T00:53:56.238Z,8.05
2023-07-04T00:57:04.216Z,8.00
2023-07-04T01:00:24.570Z,7.73
2023-07-04T01:03:27.380Z,7.82
2023-07-04T01:06:40.317Z,8.48
2023-07-04T01:09:51.324Z,7.95
2023-07-04T01:12:54.088Z,7.88
2023-07-04T01:15:59.147Z,8.00
2023-07-04T01:19:03.332Z,8.07
2023-07-04T01:22:16.773Z,7.65
2023-07-04T01:25:25.337Z,7.95
2023-07-04T01:28:30.883Z,7.78
2023-07-04T01:31:37.053Z,7.67
2023-07-04T01:34:39.860Z,8.82
2023-07-04T01:37:43.002Z,7.80
2023-07-04T01:40:48.156Z,8.63
2023-07-04T01:43:57.946Z,7.88
2023-07-04T01:47:01.169Z,7.93
2023-07-04T01:50:06.162Z,8.27
2023-07-04T01:53:09.213Z,7.75
2023-07-04T01:56:12.101Z,8.15
2023-07-04T01:59:15.608Z,8.15
2023-07-04T02:02:19.334Z,8.40
2023-07-04T02:05:22.276Z,8.15
2023-07-04T02:08:25.217Z,8.38
2023-07-04T02:11:28.328Z,8.23
2023-07-04T02:14:31.415Z,8.50
2023-07-04T02:17:34.705Z,8.23
2023-07-04T02:20:37.499Z,8.40
2023-07-04T02:23:40.225Z,8.40
2023-07-04T02:26:44.516Z,8.63
2023-07-04T02:29:50.426Z,8.40
2023-07-04T02:32:53.190Z,8.30
2023-07-04T02:35:56.977Z,8.70
2023-07-04T02:38:59.973Z,8.52
2023-07-04T02:42:02.701Z,8.27
2023-07-04T02:45:08.064Z,8.60
2023-07-04T02:48:11.835Z,8.77
2023-07-04T02:51:14.747Z,8.60
2023-07-04T02:54:17.570Z,8.85
2023-07-04T02:57:20.661Z,8.57
2023-07-04T03:00:24.033Z,8.10
2023-07-04T03:03:29.281Z,8.40
2023-07-04T03:06:36.414Z,8.50
2023-07-04T03:09:39.560Z,8.00
2023-07-04T03:12:43.016Z,8.90
2023-07-04T03:15:45.879Z,8.23
2023-07-04T03:18:48.690Z,8.57
2023-07-04T03:24:28.805Z,8.15
2023-07-04T03:27:32.492Z,8.48
2023-07-04T03:30:36.020Z,7.50
2023-07-04T03:33:44.036Z,8.93
2023-07-04T03:36:46.907Z,8.55
2023-07-04T03:39:49.631Z,8.07
2023-07-04T03:42:52.534Z,8.15
2023-07-04T03:45:55.473Z,7.60
2023-07-04T03:48:58.254Z,7.85
2023-07-04T03:52:01.125Z,7.80
2023-07-04T03:55:04.554Z,8.40
2023-07-04T03:58:07.296Z,8.13
2023-07-04T04:01:10.031Z,7.53
2023-07-04T04:04:13.030Z,8.05
2023-07-04T04:07:16.334Z,8.02
2023-07-04T04:10:19.816Z,8.65
2023-07-04T04:13:22.558Z,8.10
2023-07-04T04:16:25.555Z,8.17
2023-07-04T04:19:28.808Z,8.43
2023-07-04T04:22:31.912Z,7.78
2023-07-04T04:25:39.709Z,8.10
2023-07-04T04:28:42.564Z,8.32
2023-07-04T04:31:48.574Z,7.87
2023-07-04T04:34:51.296Z,7.47
2023-07-04T04:37:54.038Z,7.32
2023-07-04T04:41:06.210Z,7.28
2023-07-04T04:44:10.194Z,7.85
2023-07-04T04:47:13.884Z,7.80
2023-07-04T04:50:17.437Z,7.40
2023-07-04T04:53:20.274Z,6.30
2023-07-04T04:56:23.010Z,6.35
2023-07-04T04:59:25.701Z,6.35
2023-07-04T05:02:31.664Z,6.17
2023-07-04T05:05:34.470Z,5.72
2023-07-04T05:08:37.646Z,6.43
2023-07-04T05:11:40.460Z,5.72
2023-07-04T05:14:43.279Z,6.20
2023-07-04T05:17:46.055Z,6.03
2023-07-04T05:20:48.795Z,6.38
2023-07-04T05:23:53.902Z,5.55
2023-07-04T05:26:56.770Z,5.70
2023-07-04T05:29:59.498Z,5.20
2023-07-04T05:33:02.264Z,5.23
2023-07-04T05:36:12.428Z,5.20
2023-07-04T05:39:15.106Z,5.00
2023-07-04T05:42:17.886Z,5.35
2023-07-04T05:45:20.561Z,4.53
2023-07-04T05:48:23.492Z,4.43
2023-07-04T05:51:27.587Z,4.97
2023-07-04T05:54:30.325Z,4.78
2023-07-04T05:57:33.210Z,4.55
2023-07-04T06:00:36.447Z,4.60
2023-07-04T06:03:40.455Z,4.23
2023-07-04T06:06:51.814Z,4.32
2023-07-04T06:09:54.571Z,4.13
2023-07-04T06:12:57.444Z,3.30
2023-07-04T06:16:02.891Z,3.95
2023-07-04T06:19:05.747Z,3.30
2023-07-04T06:22:08.615Z,2.97
2023-07-04T06:25:11.535Z,3.08
2023-07-04T06:28:14.243Z,3.10
2023-07-04T06:31:18.728Z,3.00
2023-07-04T06:34:21.550Z,3.10
2023-07-04T06:37:24.390Z,2.90
2023-07-04T06:40:27.107Z,2.70
2023-07-04T06:43:32.168Z,3.20
2023-07-04T06:46:36.127Z,2.97
2023-07-04T06:49:39.069Z,3.20
2023-07-04T06:52:41.811Z,3.28
2023-07-04T06:55:44.685Z,3.13
2023-07-04T06:58:54.220Z,3.00
2023-07-04T07:01:57.310Z,2.65
2023-07-04T07:05:00.680Z,2.60
2023-07-04T07:08:03.623Z,2.45
2023-07-04T07:11:08.925Z,2.42
2023-07-04T07:14:11.734Z,2.58
2023-07-04T07:17:14.524Z,2.47
2023-07-04T07:20:17.470Z,2.30
2023-07-04T07:23:20.287Z,2.30
2023-07-04T07:26:24.029Z,2.22
2023-07-04T07:29:27.578Z,2.10
2023-07-04T07:32:30.409Z,2.58
2023-07-04T07:35:33.267Z,2.37
2023-07-04T07:38:36.023Z,2.10
2023-07-04T07:41:42.481Z,2.47
2023-07-04T07:44:45.287Z,2.47
2023-07-04T07:47:51.821Z,2.42
2023-07-04T07:50:55.287Z,2.90
2023-07-04T07:54:01.380Z,2.72
2023-07-04T07:57:04.364Z,2.47
2023-07-04T08:00:08.677Z,2.75
2023-07-04T08:03:15.592Z,2.70
2023-07-04T08:06:30.807Z,2.83
2023-07-04T08:09:33.689Z,2.30
2023-07-04T08:12:36.798Z,2.17
2023-07-04T08:15:39.623Z,2.28
2023-07-04T08:18:43.328Z,2.10
2023-07-04T08:21:47.983Z,2.20
2023-07-04T08:24:50.713Z,2.38
2023-07-04T08:27:54.358Z,2.47
2023-07-04T08:31:05.827Z,2.40
2023-07-04T08:34:12.272Z,2.33
2023-07-04T08:37:16.015Z,2.30
2023-07-04T08:40:19.628Z,2.17
2023-07-04T08:43:49.938Z,2.40
2023-07-04T08:46:56.478Z,2.30
2023-07-04T08:50:19.491Z,2.17
2023-07-04T08:53:25.966Z,2.00
2023-07-04T08:56:34.802Z,2.33
2023-07-04T08:59:44.407Z,1.92
2023-07-04T09:03:09.926Z,1.92
2023-07-04T09:06:29.333Z,2.28
2023-07-04T09:09:39.872Z,2.00
2023-07-04T09:12:44.263Z,2.20
2023-07-04T09:15:48.810Z,1.77
2023-07-04T09:19:06.804Z,1.98
2023-07-04T09:22:10.363Z,2.17
2023-07-04T09:25:13.287Z,2.20
2023-07-04T09:28:16.438Z,2.30
2023-07-04T09:31:31.045Z,2.50
2023-07-04T09:34:38.004Z,2.65
2023-07-04T09:37:59.117Z,2.65
2023-07-04T09:41:03.438Z,2.60
2023-07-04T09:44:17.703Z,2.60
2023-07-04T09:47:29.708Z,2.17
2023-07-04T09:50:37.707Z,1.77
2023-07-04T09:53:40.527Z,2.00
2023-07-04T09:56:44.268Z,2.13
2023-07-04T09:59:47.358Z,2.15
2023-07-04T10:02:54.126Z,2.70
2023-07-04T10:05:57.222Z,2.00
2023-07-04T10:09:03.390Z,2.20
2023-07-04T10:12:14.302Z,2.00
2023-07-04T10:15:36.059Z,2.00
2023-07-04T10:18:40.412Z,1.90
2023-07-04T10:21:44.209Z,3.28
2023-07-04T10:24:47.097Z,2.90
2023-07-04T10:27:57.082Z,2.60
2023-07-04T10:31:12.820Z,2.92
2023-07-04T10:34:20.009Z,2.70
2023-07-04T10:37:25.891Z,2.85
2023-07-04T10:41:03.493Z,2.60
2023-07-04T10:44:35.209Z,2.00
2023-07-04T10:47:40.646Z,1.92
2023-07-04T10:51:02.636Z,1.58
2023-07-04T10:54:09.290Z,2.30
2023-07-04T10:57:47.402Z,2.20
2023-07-04T11:01:14.134Z,2.20
2023-07-04T11:04:33.019Z,2.08
2023-07-04T11:07:40.877Z,3.20
2023-07-04T11:10:46.493Z,1.90
2023-07-04T11:13:52.560Z,2.00
2023-07-04T11:16:59.186Z,2.20
2023-07-04T11:20:15.190Z,1.83
2023-07-04T11:23:20.704Z,1.90
2023-07-04T11:26:47.605Z,2.00
2023-07-04T11:30:04.191Z,2.00
2023-07-04T11:33:08.986Z,2.40
2023-07-04T11:36:30.496Z,2.03
2023-07-04T11:39:37.768Z,1.92
2023-07-04T11:42:48.018Z,2.05
2023-07-04T11:45:51.024Z,1.70
2023-07-04T11:48:57.333Z,1.80
2023-07-04T11:52:05.527Z,1.75
2023-07-04T11:55:16.384Z,1.48
2023-07-04T11:58:20.223Z,1.50
2023-07-04T12:01:23.093Z,2.00
2023-07-04T12:04:47.815Z,1.60
2023-07-04T12:07:52.884Z,2.58
2023-07-04T12:11:05.753Z,1.65
2023-07-04T12:14:11.240Z,1.33
2023-07-04T12:17:16.020Z,1.60
2023-07-04T12:20:22.166Z,1.70
2023-07-04T12:23:26.054Z,1.40
2023-07-04T12:26:29.883Z,1.25
2023-07-04T12:32:41.286Z,1.33
2023-07-04T12:35:47.942Z,1.10
2023-07-04T12:38:54.557Z,1.25
2023-07-04T12:41:57.506Z,1.02
2023-07-04T12:45:00.270Z,1.02
2023-07-04T12:51:15.388Z,0.90
2023-07-04T12:54:18.543Z,1.25
2023-07-04T12:57:26.407Z,0.80
2023-07-04T13:00:52.718Z,1.00
2023-07-04T13:04:00.734Z,1.02
2023-07-04T13:07:03.860Z,1.00
2023-07-04T13:10:07.130Z,1.10
2023-07-04T13:13:39.015Z,1.33
2023-07-04T13:16:41.953Z,1.10
2023-07-04T13:19:45.305Z,1.13
2023-07-04T13:24:57.823Z,0.87
2023-07-04T13:26:20.291Z,1.00
2023-07-04T13:35:47.041Z,1.05
2023-07-04T13:39:49.976Z,0.80
2023-07-04T13:42:18.275Z,1.27
2023-07-04T13:45:21.357Z,0.90
2023-07-04T13:48:26.755Z,1.25
2023-07-04T13:51:30.155Z,0.80
2023-07-04T13:54:32.955Z,1.00
2023-07-04T13:57:36.484Z,1.10
2023-07-04T14:03:46.482Z,1.00
2023-07-04T14:07:10.143Z,1.05
2023-07-04T14:10:27.794Z,1.40
2023-07-04T14:13:36.814Z,1.10
2023-07-04T14:17:12.242Z,1.40
2023-07-04T14:20:04.232Z,1.10
2023-07-04T14:23:07.156Z,1.02
2023-07-04T14:26:22.203Z,1.23
2023-07-04T14:29:25.769Z,1.27
2023-07-04T14:32:28.789Z,1.30
2023-07-04T14:35:31.618Z,1.10
2023-07-04T14:38:35.884Z,1.40
2023-07-04T14:44:46.163Z,1.40
2023-07-04T14:47:49.086Z,1.45
2023-07-04T14:51:09.549Z,1.70
2023-07-04T14:54:15.827Z,1.60
2023-07-04T14:57:19.114Z,1.60
2023-07-04T15:00:24.239Z,1.77
2023-07-04T15:03:31.606Z,1.60
2023-07-04T15:06:34.514Z,1.55
2023-07-04T15:09:38.750Z,2.10
2023-07-04T15:12:41.473Z,2.13
2023-07-04T15:15:44.367Z,2.30
2023-07-04T15:18:47.276Z,1.75
2023-07-04T15:21:50.360Z,1.80
2023-07-04T15:24:53.035Z,1.83
2023-07-04T15:27:55.744Z,1.87
2023-07-04T15:30:58.644Z,2.15
2023-07-04T15:34:01.502Z,1.98
2023-07-04T15:37:08.563Z,2.30
2023-07-04T15:40:12.169Z,2.10
2023-07-04T15:43:14.930Z,1.80
2023-07-04T15:46:18.342Z,2.08
2023-07-04T15:49:21.082Z,2.30
2023-07-04T15:52:26.152Z,2.30
2023-07-04T15:55:31.695Z,1.92
2023-07-04T15:58:34.542Z,2.27
2023-07-04T16:01:37.378Z,2.28
2023-07-04T16:04:40.178Z,2.30
2023-07-04T16:07:42.937Z,2.53
2023-07-04T16:10:48.386Z,2.60
2023-07-04T16:13:54.254Z,2.40
2023-07-04T16:16:57.018Z,2.42
2023-07-04T16:19:59.923Z,2.47
2023-07-04T16:23:02.720Z,1.90
2023-07-04T16:26:05.489Z,2.45
2023-07-04T16:29:08.315Z,2.23
2023-07-04T16:32:11.190Z,2.63
2023-07-04T16:35:13.930Z,2.42
2023-07-04T16:38:16.781Z,2.28
2023-07-04T16:41:19.669Z,2.63
2023-07-04T16:44:24.489Z,2.70
2023-07-04T16:47:28.458Z,2.22
2023-07-04T16:50:33.155Z,2.40
2023-07-04T16:53:39.467Z,2.63
2023-07-04T16:56:42.218Z,2.50
2023-07-04T16:59:45.416Z,2.70
2023-07-04T17:02:48.234Z,2.70
2023-07-04T17:05:51.370Z,2.47
2023-07-04T17:08:54.696Z,2.58
2023-07-04T17:11:59.701Z,2.58
2023-07-04T17:15:02.466Z,2.13
2023-07-04T17:18:05.281Z,2.58
2023-07-04T17:21:09.288Z,2.45
2023-07-04T17:24:12.194Z,2.65
2023-07-04T17:27:14.956Z,2.35
2023-07-04T17:30:18.701Z,2.67
2023-07-04T17:33:21.540Z,2.55
2023-07-04T17:36:24.889Z,2.50
2023-07-04T17:39:27.601Z,2.60
2023-07-04T17:42:30.852Z,3.00
2023-07-04T17:45:33.630Z,2.60
2023-07-04T17:48:36.665Z,2.72
2023-07-04T17:51:39.519Z,2.75
2023-07-04T17:54:42.831Z,2.67
2023-07-04T17:57:45.603Z,2.65
2023-07-04T18:00:48.288Z,2.80
2023-07-04T18:03:52.655Z,2.80
2023-07-04T18:06:55.656Z,2.88
2023-07-04T18:09:58.586Z,2.80
2023-07-04T18:13:01.383Z,2.65
2023-07-04T18:16:04.731Z,2.70
2023-07-04T18:19:08.065Z,3.00
2023-07-04T18:22:11.849Z,2.90
2023-07-04T18:25:14.805Z,3.05
2023-07-04T18:28:20.734Z,2.75
2023-07-04T18:31:26.277Z,2.73
2023-07-04T18:34:29.468Z,3.00
2023-07-04T18:37:32.191Z,2.88
2023-07-04T18:40:40.786Z,2.60
2023-07-04T18:43:44.423Z,3.03
2023-07-04T18:46:47.902Z,2.90
2023-07-04T18:49:51.470Z,2.88
2023-07-04T18:52:54.481Z,2.92
2023-07-04T18:55:59.101Z,2.70
2023-07-04T18:59:01.905Z,2.67
2023-07-04T19:02:04.940Z,2.83
2023-07-04T19:05:08.250Z,2.83
2023-07-04T19:08:11.286Z,3.20
2023-07-04T19:11:16.079Z,2.90
2023-07-04T19:14:21.230Z,3.38
2023-07-04T19:17:24.223Z,3.23
2023-07-04T19:20:27.046Z,3.42
2023-07-04T19:23:31.015Z,3.30
2023-07-04T19:26:36.183Z,3.60
2023-07-04T19:29:40.577Z,3.08
2023-07-04T19:32:43.299Z,3.30
2023-07-04T19:35:46.271Z,3.70
2023-07-04T19:38:49.943Z,3.60
2023-07-04T19:41:53.012Z,8.35
2023-07-04T19:44:55.903Z,5.50
2023-07-04T19:47:59.952Z,4.77
2023-07-04T19:51:08.717Z,3.60
2023-07-04T19:54:11.593Z,3.58
2023-07-04T19:57:14.484Z,3.63
2023-07-04T20:00:17.393Z,6.07
2023-07-04T20:03:20.580Z,6.03
2023-07-04T20:06:24.208Z,7.38
2023-07-04T20:09:27.057Z,6.38
2023-07-04T20:12:30.030Z,5.32
2023-07-04T20:15:36.173Z,4.78
2023-07-04T20:18:39.221Z,4.87
2023-07-04T20:21:42.333Z,4.60
2023-07-04T20:24:45.266Z,4.40
2023-07-04T20:27:48.192Z,4.43
2023-07-04T20:30:56.763Z,7.30
2023-07-04T20:34:00.513Z,13.00
2023-07-04T20:37:05.465Z,18.80
2023-07-04T20:40:10.205Z,18.92
2023-07-04T20:43:14.841Z,22.58
2023-07-04T20:46:17.653Z,23.45
2023-07-04T20:49:24.399Z,9.47
2023-07-04T20:52:28.391Z,6.32
2023-07-04T20:55:31.241Z,4.85
2023-07-04T20:58:34.097Z,4.07
2023-07-04T21:01:36.890Z,4.38
2023-07-04T21:04:39.768Z,3.93
2023-07-04T21:07:47.820Z,4.18
2023-07-04T21:10:55.416Z,3.67
2023-07-04T21:13:58.190Z,3.97
2023-07-04T21:17:00.943Z,4.60
2023-07-04T21:20:04.751Z,4.30
2023-07-04T21:23:07.579Z,4.75
2023-07-04T21:26:10.659Z,4.90
2023-07-04T21:29:18.579Z,4.82
2023-07-04T21:32:21.369Z,4.82
2023-07-04T21:35:24.183Z,4.27
2023-07-04T21:38:27.257Z,4.40
2023-07-04T21:41:30.101Z,4.75
2023-07-04T21:44:32.783Z,4.10
2023-07-04T21:47:36.085Z,4.60
2023-07-04T21:50:40.288Z,4.60
2023-07-04T21:53:43.158Z,4.50
2023-07-04T21:56:46.035Z,5.13
2023-07-04T21:59:48.762Z,4.80
2023-07-04T22:02:51.550Z,5.00
2023-07-04T22:06:11.005Z,5.10
2023-07-04T22:09:18.389Z,5.10
2023-07-04T22:12:21.185Z,5.63
2023-07-04T22:15:23.968Z,5.60
2023-07-04T22:18:27.023Z,5.88
2023-07-04T22:21:29.783Z,5.57
2023-07-04T22:24:32.615Z,5.47
2023-07-04T22:27:35.329Z,5.68
2023-07-04T22:30:38.084Z,5.35
2023-07-04T22:33:58.272Z,6.03
2023-07-04T22:37:01.118Z,5.90
2023-07-04T22:40:04.357Z,6.57
2023-07-04T22:43:07.130Z,5.90
2023-07-04T22:46:09.841Z,6.15
2023-07-04T22:49:12.544Z,5.85
2023-07-04T22:52:15.314Z,6.30
2023-07-04T22:55:18.129Z,5.60
2023-07-04T22:58:20.826Z,6.38
2023-07-04T23:01:26.117Z,5.47
2023-07-04T23:04:28.896Z,5.88
2023-07-04T23:07:32.422Z,6.20
2023-07-04T23:10:35.441Z,5.53
2023-07-04T23:13:38.545Z,5.88
2023-07-04T23:16:41.288Z,5.28
2023-07-04T23:19:44.030Z,5.60
2023-07-04T23:22:46.808Z,5.77
2023-07-04T23:25:49.639Z,6.13
2023-07-04T23:28:53.176Z,5.45
2023-07-04T23:31:55.984Z,5.85
2023-07-04T23:34:59.343Z,5.80
2023-07-04T23:38:04.201Z,5.63
2023-07-04T23:41:07.493Z,5.90
2023-07-04T23:44:10.182Z,5.68
2023-07-04T23:47:12.960Z,5.47
2023-07-04T23:50:15.752Z,4.68
2023-07-04T23:53:19.036Z,5.40
2023-07-04T23:56:22.749Z,5.50
2023-07-04T23:59:25.679Z,5.72
